sensor_id;sensor_type;location;lat;lon;timestamp;temperature;humidity
11838;DHT22;5978;51.020;6.764;2023-02-18T00:00:25;11.50;99.90
11838;DHT22;5978;51.020;6.764;2023-02-18T00:02:51;11.40;99.90
11838;DHT22;5978;51.020;6.764;2023-02-18T00:05:17;11.50;99.90
11838;DHT22;5978;51.020;6.764;2023-02-18T00:07:43;11.50;99.90
11838;DHT22;5978;51.020;6.764;2023-02-18T00:10:11;11.50;99.90
11838;DHT22;5978;51.020;6.764;2023-02-18T00:12:37;11.50;99.90
11838;DHT22;5978;51.020;6.764;2023-02-18T00:15:03;11.50;99.90
11838;DHT22;5978;51.020;6.764;2023-02-18T00:17:28;11.50;99.90
11838;DHT22;5978;51.020;6.764;2023-02-18T00:19:54;11.50;99.90
11838;DHT22;5978;51.020;6.764;2023-02-18T00:22:21;11.50;99.90
11838;DHT22;5978;51.020;6.764;2023-02-18T00:24:47;11.50;99.90
11838;DHT22;5978;51.020;6.764;2023-02-18T00:27:13;11.50;99.90
11838;DHT22;5978;51.020;6.764;2023-02-18T00:29:39;11.50;99.90
11838;DHT22;5978;51.020;6.764;2023-02-18T00:32:04;11.60;99.90
11838;DHT22;5978;51.020;6.764;2023-02-18T00:34:30;11.50;99.90
11838;DHT22;5978;51.020;6.764;2023-02-18T00:36:55;11.50;99.90
11838;DHT22;5978;51.020;6.764;2023-02-18T00:39:21;11.50;99.90
11838;DHT22;5978;51.020;6.764;2023-02-18T00:41:46;11.50;99.90
11838;DHT22;5978;51.020;6.764;2023-02-18T00:44:12;11.50;99.90
11838;DHT22;5978;51.020;6.764;2023-02-18T00:46:38;11.50;99.90
11838;DHT22;5978;51.020;6.764;2023-02-18T00:49:04;11.50;99.90
11838;DHT22;5978;51.020;6.764;2023-02-18T00:51:30;11.50;99.90
11838;DHT22;5978;51.020;6.764;2023-02-18T00:53:56;11.50;99.90
11838;DHT22;5978;51.020;6.764;2023-02-18T00:56:21;11.50;99.90
11838;DHT22;5978;51.020;6.764;2023-02-18T00:58:48;11.50;99.90
11838;DHT22;5978;51.020;6.764;2023-02-18T01:01:13;11.60;99.90
11838;DHT22;5978;51.020;6.764;2023-02-18T01:03:40;11.50;99.90
11838;DHT22;5978;51.020;6.764;2023-02-18T01:06:07;11.50;99.90
11838;DHT22;5978;51.020;6.764;2023-02-18T01:08:34;11.50;99.90
11838;DHT22;5978;51.020;6.764;2023-02-18T01:11:01;11.50;99.90
11838;DHT22;5978;51.020;6.764;2023-02-18T01:13:27;11.50;99.90
11838;DHT22;5978;51.020;6.764;2023-02-18T01:15:53;11.50;99.90
11838;DHT22;5978;51.020;6.764;2023-02-18T01:18:20;11.50;99.90
11838;DHT22;5978;51.020;6.764;2023-02-18T01:20:45;11.50;99.90
11838;DHT22;5978;51.020;6.764;2023-02-18T01:23:12;11.60;99.90
11838;DHT22;5978;51.020;6.764;2023-02-18T01:25:38;11.50;99.90
11838;DHT22;5978;51.020;6.764;2023-02-18T01:28:05;11.50;99.90
11838;DHT22;5978;51.020;6.764;2023-02-18T01:30:31;11.50;99.90
11838;DHT22;5978;51.020;6.764;2023-02-18T01:32:57;11.50;99.90
11838;DHT22;5978;51.020;6.764;2023-02-18T01:35:22;11.60;99.90
11838;DHT22;5978;51.020;6.764;2023-02-18T01:37:49;11.60;99.90
11838;DHT22;5978;51.020;6.764;2023-02-18T01:40:19;11.60;99.90
11838;DHT22;5978;51.020;6.764;2023-02-18T01:42:46;11.60;99.90
11838;DHT22;5978;51.020;6.764;2023-02-18T01:48:16;11.60;99.90
11838;DHT22;5978;51.020;6.764;2023-02-18T01:50:49;11.50;99.90
11838;DHT22;5978;51.020;6.764;2023-02-18T01:53:19;11.50;99.90
11838;DHT22;5978;51.020;6.764;2023-02-18T01:55:47;11.50;99.90
11838;DHT22;5978;51.020;6.764;2023-02-18T01:58:14;11.50;99.90
11838;DHT22;5978;51.020;6.764;2023-02-18T02:00:40;11.50;99.90
11838;DHT22;5978;51.020;6.764;2023-02-18T02:03:06;11.50;99.90
11838;DHT22;5978;51.020;6.764;2023-02-18T02:05:35;11.50;99.90
11838;DHT22;5978;51.020;6.764;2023-02-18T02:08:01;11.40;99.90
11838;DHT22;5978;51.020;6.764;2023-02-18T02:10:52;11.50;99.90
11838;DHT22;5978;51.020;6.764;2023-02-18T02:13:45;11.50;99.90
11838;DHT22;5978;51.020;6.764;2023-02-18T02:16:39;11.50;99.90
11838;DHT22;5978;51.020;6.764;2023-02-18T02:27:47;11.40;99.90
11838;DHT22;5978;51.020;6.764;2023-02-18T02:33:02;11.40;99.90
11838;DHT22;5978;51.020;6.764;2023-02-18T02:38:20;11.50;99.90
11838;DHT22;5978;51.020;6.764;2023-02-18T02:40:56;11.50;99.90
11838;DHT22;5978;51.020;6.764;2023-02-18T02:43:30;11.50;99.90
11838;DHT22;5978;51.020;6.764;2023-02-18T02:46:10;11.40;99.90
11838;DHT22;5978;51.020;6.764;2023-02-18T02:49:02;11.50;99.90
11838;DHT22;5978;51.020;6.764;2023-02-18T02:51:57;11.50;99.90
11838;DHT22;5978;51.020;6.764;2023-02-18T02:54:26;11.50;99.90
11838;DHT22;5978;51.020;6.764;2023-02-18T03:00:00;11.50;99.90
11838;DHT22;5978;51.020;6.764;2023-02-18T03:02:51;11.60;99.90
11838;DHT22;5978;51.020;6.764;2023-02-18T03:08:35;11.50;99.90
11838;DHT22;5978;51.020;6.764;2023-02-18T03:11:04;11.50;99.90
11838;DHT22;5978;51.020;6.764;2023-02-18T03:18:45;11.60;99.90
11838;DHT22;5978;51.020;6.764;2023-02-18T03:21:18;11.60;99.90
11838;DHT22;5978;51.020;6.764;2023-02-18T03:23:56;11.60;99.90
11838;DHT22;5978;51.020;6.764;2023-02-18T03:26:24;11.60;99.90
11838;DHT22;5978;51.020;6.764;2023-02-18T03:28:52;11.70;99.90
11838;DHT22;5978;51.020;6.764;2023-02-18T03:31:21;11.70;99.90
11838;DHT22;5978;51.020;6.764;2023-02-18T03:33:54;11.70;99.90
11838;DHT22;5978;51.020;6.764;2023-02-18T03:36:22;11.70;99.90
11838;DHT22;5978;51.020;6.764;2023-02-18T03:39:14;11.70;99.90
11838;DHT22;5978;51.020;6.764;2023-02-18T03:41:40;11.60;99.90
11838;DHT22;5978;51.020;6.764;2023-02-18T03:44:07;11.60;99.90
11838;DHT22;5978;51.020;6.764;2023-02-18T03:46:34;11.60;99.90
11838;DHT22;5978;51.020;6.764;2023-02-18T03:49:01;11.50;99.90
11838;DHT22;5978;51.020;6.764;2023-02-18T03:51:27;11.50;99.90
11838;DHT22;5978;51.020;6.764;2023-02-18T03:53:52;11.40;99.90
11838;DHT22;5978;51.020;6.764;2023-02-18T03:56:19;11.40;99.90
11838;DHT22;5978;51.020;6.764;2023-02-18T03:58:44;11.30;99.90
11838;DHT22;5978;51.020;6.764;2023-02-18T04:01:10;11.30;99.90
11838;DHT22;5978;51.020;6.764;2023-02-18T04:03:36;11.30;99.90
11838;DHT22;5978;51.020;6.764;2023-02-18T04:06:01;11.30;99.90
11838;DHT22;5978;51.020;6.764;2023-02-18T04:08:27;11.30;99.90
11838;DHT22;5978;51.020;6.764;2023-02-18T04:10:52;11.30;99.90
11838;DHT22;5978;51.020;6.764;2023-02-18T04:13:18;11.30;99.90
11838;DHT22;5978;51.020;6.764;2023-02-18T04:15:44;11.30;99.90
11838;DHT22;5978;51.020;6.764;2023-02-18T04:18:10;11.30;99.90
11838;DHT22;5978;51.020;6.764;2023-02-18T04:20:36;11.20;99.90
11838;DHT22;5978;51.020;6.764;2023-02-18T04:23:02;11.20;99.90
11838;DHT22;5978;51.020;6.764;2023-02-18T04:25:28;11.00;99.90
11838;DHT22;5978;51.020;6.764;2023-02-18T04:27:53;11.00;99.90
11838;DHT22;5978;51.020;6.764;2023-02-18T04:30:19;10.90;99.90
11838;DHT22;5978;51.020;6.764;2023-02-18T04:32:44;10.90;99.90
11838;DHT22;5978;51.020;6.764;2023-02-18T04:35:10;10.80;99.90
11838;DHT22;5978;51.020;6.764;2023-02-18T04:37:36;10.80;99.90
11838;DHT22;5978;51.020;6.764;2023-02-18T04:40:01;10.80;99.90
11838;DHT22;5978;51.020;6.764;2023-02-18T04:42:27;10.80;99.90
11838;DHT22;5978;51.020;6.764;2023-02-18T04:44:53;10.80;99.90
11838;DHT22;5978;51.020;6.764;2023-02-18T04:47:18;10.80;99.90
11838;DHT22;5978;51.020;6.764;2023-02-18T04:49:44;10.80;99.90
11838;DHT22;5978;51.020;6.764;2023-02-18T04:52:09;10.70;99.90
11838;DHT22;5978;51.020;6.764;2023-02-18T04:54:35;10.70;99.90
11838;DHT22;5978;51.020;6.764;2023-02-18T04:57:00;10.70;99.90
11838;DHT22;5978;51.020;6.764;2023-02-18T04:59:26;10.70;99.90
11838;DHT22;5978;51.020;6.764;2023-02-18T05:01:51;10.70;99.90
11838;DHT22;5978;51.020;6.764;2023-02-18T05:04:17;10.70;99.90
11838;DHT22;5978;51.020;6.764;2023-02-18T05:06:43;10.60;99.90
11838;DHT22;5978;51.020;6.764;2023-02-18T05:09:09;10.60;99.90
11838;DHT22;5978;51.020;6.764;2023-02-18T05:11:35;10.60;99.90
11838;DHT22;5978;51.020;6.764;2023-02-18T05:14:00;10.60;99.90
11838;DHT22;5978;51.020;6.764;2023-02-18T05:16:26;10.60;99.90
11838;DHT22;5978;51.020;6.764;2023-02-18T05:18:52;10.50;99.90
11838;DHT22;5978;51.020;6.764;2023-02-18T05:21:17;10.50;99.90
11838;DHT22;5978;51.020;6.764;2023-02-18T05:23:43;10.50;99.90
11838;DHT22;5978;51.020;6.764;2023-02-18T05:26:08;10.50;99.90
11838;DHT22;5978;51.020;6.764;2023-02-18T05:28:34;10.60;99.90
11838;DHT22;5978;51.020;6.764;2023-02-18T05:30:59;10.60;99.90
11838;DHT22;5978;51.020;6.764;2023-02-18T05:33:25;10.60;99.90
11838;DHT22;5978;51.020;6.764;2023-02-18T05:35:51;10.60;99.90
11838;DHT22;5978;51.020;6.764;2023-02-18T05:38:16;10.50;99.90
11838;DHT22;5978;51.020;6.764;2023-02-18T05:40:42;10.60;99.90
11838;DHT22;5978;51.020;6.764;2023-02-18T05:43:07;10.60;99.90
11838;DHT22;5978;51.020;6.764;2023-02-18T05:45:34;10.50;99.90
11838;DHT22;5978;51.020;6.764;2023-02-18T05:47:59;10.50;99.90
11838;DHT22;5978;51.020;6.764;2023-02-18T05:50:25;10.50;99.90
11838;DHT22;5978;51.020;6.764;2023-02-18T05:52:50;10.50;99.90
11838;DHT22;5978;51.020;6.764;2023-02-18T05:55:16;10.50;99.90
11838;DHT22;5978;51.020;6.764;2023-02-18T05:57:42;10.50;99.90
11838;DHT22;5978;51.020;6.764;2023-02-18T06:00:08;10.50;99.90
11838;DHT22;5978;51.020;6.764;2023-02-18T06:02:35;10.40;99.90
11838;DHT22;5978;51.020;6.764;2023-02-18T06:05:00;10.40;99.90
11838;DHT22;5978;51.020;6.764;2023-02-18T06:07:26;10.40;99.90
11838;DHT22;5978;51.020;6.764;2023-02-18T06:09:52;10.30;99.90
11838;DHT22;5978;51.020;6.764;2023-02-18T06:12:18;10.40;99.90
11838;DHT22;5978;51.020;6.764;2023-02-18T06:14:43;10.40;99.90
11838;DHT22;5978;51.020;6.764;2023-02-18T06:17:11;10.30;99.90
11838;DHT22;5978;51.020;6.764;2023-02-18T06:19:37;10.30;99.90
11838;DHT22;5978;51.020;6.764;2023-02-18T06:22:02;10.30;99.90
11838;DHT22;5978;51.020;6.764;2023-02-18T06:24:28;10.30;99.90
11838;DHT22;5978;51.020;6.764;2023-02-18T06:26:53;10.30;99.90
11838;DHT22;5978;51.020;6.764;2023-02-18T06:29:19;10.30;99.90
11838;DHT22;5978;51.020;6.764;2023-02-18T06:31:45;10.30;99.90
11838;DHT22;5978;51.020;6.764;2023-02-18T06:34:10;10.30;99.90
11838;DHT22;5978;51.020;6.764;2023-02-18T06:36:36;10.40;99.90
11838;DHT22;5978;51.020;6.764;2023-02-18T06:39:03;10.40;99.90
11838;DHT22;5978;51.020;6.764;2023-02-18T06:41:29;10.30;99.90
11838;DHT22;5978;51.020;6.764;2023-02-18T06:43:55;10.40;99.90
11838;DHT22;5978;51.020;6.764;2023-02-18T06:46:20;10.40;99.90
11838;DHT22;5978;51.020;6.764;2023-02-18T06:48:46;10.40;99.90
11838;DHT22;5978;51.020;6.764;2023-02-18T06:51:12;10.40;99.90
11838;DHT22;5978;51.020;6.764;2023-02-18T06:53:38;10.50;99.90
11838;DHT22;5978;51.020;6.764;2023-02-18T06:56:04;10.50;99.90
11838;DHT22;5978;51.020;6.764;2023-02-18T06:58:29;10.50;99.90
11838;DHT22;5978;51.020;6.764;2023-02-18T07:00:55;10.50;99.90
11838;DHT22;5978;51.020;6.764;2023-02-18T07:03:20;10.50;99.90
11838;DHT22;5978;51.020;6.764;2023-02-18T07:05:46;10.50;99.90
11838;DHT22;5978;51.020;6.764;2023-02-18T07:08:12;10.60;99.90
11838;DHT22;5978;51.020;6.764;2023-02-18T07:10:38;10.50;99.90
11838;DHT22;5978;51.020;6.764;2023-02-18T07:13:04;10.60;99.90
11838;DHT22;5978;51.020;6.764;2023-02-18T07:15:30;10.60;99.90
11838;DHT22;5978;51.020;6.764;2023-02-18T07:17:56;10.70;99.90
11838;DHT22;5978;51.020;6.764;2023-02-18T07:20:22;10.70;99.90
11838;DHT22;5978;51.020;6.764;2023-02-18T07:22:48;10.70;99.90
11838;DHT22;5978;51.020;6.764;2023-02-18T07:25:14;10.70;99.90
11838;DHT22;5978;51.020;6.764;2023-02-18T07:27:40;10.70;99.90
11838;DHT22;5978;51.020;6.764;2023-02-18T07:30:06;10.70;99.90
11838;DHT22;5978;51.020;6.764;2023-02-18T07:32:31;10.80;99.90
11838;DHT22;5978;51.020;6.764;2023-02-18T07:34:57;10.80;99.90
11838;DHT22;5978;51.020;6.764;2023-02-18T07:37:22;10.90;99.90
11838;DHT22;5978;51.020;6.764;2023-02-18T07:39:48;10.90;99.90
11838;DHT22;5978;51.020;6.764;2023-02-18T07:42:13;10.90;99.90
11838;DHT22;5978;51.020;6.764;2023-02-18T07:44:40;10.80;99.90
11838;DHT22;5978;51.020;6.764;2023-02-18T07:47:07;10.90;99.90
11838;DHT22;5978;51.020;6.764;2023-02-18T07:49:33;10.80;99.90
11838;DHT22;5978;51.020;6.764;2023-02-18T07:51:59;10.80;99.90
11838;DHT22;5978;51.020;6.764;2023-02-18T07:54:25;10.80;99.90
11838;DHT22;5978;51.020;6.764;2023-02-18T07:56:51;10.80;99.90
11838;DHT22;5978;51.020;6.764;2023-02-18T07:59:16;10.80;99.90
11838;DHT22;5978;51.020;6.764;2023-02-18T08:01:42;10.80;99.90
11838;DHT22;5978;51.020;6.764;2023-02-18T08:04:08;10.70;99.90
11838;DHT22;5978;51.020;6.764;2023-02-18T08:06:36;10.70;99.90
11838;DHT22;5978;51.020;6.764;2023-02-18T08:09:02;10.60;99.90
11838;DHT22;5978;51.020;6.764;2023-02-18T08:11:28;10.60;99.90
11838;DHT22;5978;51.020;6.764;2023-02-18T08:13:53;10.60;99.90
11838;DHT22;5978;51.020;6.764;2023-02-18T08:16:20;10.50;99.90
11838;DHT22;5978;51.020;6.764;2023-02-18T08:18:47;10.50;99.90
11838;DHT22;5978;51.020;6.764;2023-02-18T08:21:15;10.50;99.90
11838;DHT22;5978;51.020;6.764;2023-02-18T08:23:40;10.50;99.90
11838;DHT22;5978;51.020;6.764;2023-02-18T08:26:06;10.60;99.90
11838;DHT22;5978;51.020;6.764;2023-02-18T08:28:32;10.60;99.90
11838;DHT22;5978;51.020;6.764;2023-02-18T08:30:58;10.50;99.90
11838;DHT22;5978;51.020;6.764;2023-02-18T08:33:24;10.60;99.90
11838;DHT22;5978;51.020;6.764;2023-02-18T08:35:52;10.50;99.90
11838;DHT22;5978;51.020;6.764;2023-02-18T08:38:18;10.50;99.90
11838;DHT22;5978;51.020;6.764;2023-02-18T08:40:45;10.50;99.90
11838;DHT22;5978;51.020;6.764;2023-02-18T08:43:10;10.40;99.90
11838;DHT22;5978;51.020;6.764;2023-02-18T08:45:37;10.30;99.90
11838;DHT22;5978;51.020;6.764;2023-02-18T08:48:04;10.20;99.90
11838;DHT22;5978;51.020;6.764;2023-02-18T08:50:30;10.20;99.90
11838;DHT22;5978;51.020;6.764;2023-02-18T08:52:56;10.20;99.90
11838;DHT22;5978;51.020;6.764;2023-02-18T08:55:24;10.20;99.90
11838;DHT22;5978;51.020;6.764;2023-02-18T08:57:51;10.10;99.90
11838;DHT22;5978;51.020;6.764;2023-02-18T09:00:17;10.20;99.90
11838;DHT22;5978;51.020;6.764;2023-02-18T09:02:43;10.20;99.90
11838;DHT22;5978;51.020;6.764;2023-02-18T09:05:09;10.30;99.90
11838;DHT22;5978;51.020;6.764;2023-02-18T09:07:36;10.30;99.90
11838;DHT22;5978;51.020;6.764;2023-02-18T09:10:02;10.40;99.90
11838;DHT22;5978;51.020;6.764;2023-02-18T09:12:28;10.50;99.90
11838;DHT22;5978;51.020;6.764;2023-02-18T09:14:53;10.50;99.90
11838;DHT22;5978;51.020;6.764;2023-02-18T09:17:19;10.50;99.90
11838;DHT22;5978;51.020;6.764;2023-02-18T09:19:45;10.60;99.90
11838;DHT22;5978;51.020;6.764;2023-02-18T09:22:10;10.60;99.90
11838;DHT22;5978;51.020;6.764;2023-02-18T09:24:37;10.70;99.90
11838;DHT22;5978;51.020;6.764;2023-02-18T09:27:03;10.80;99.90
11838;DHT22;5978;51.020;6.764;2023-02-18T09:29:33;10.90;99.90
11838;DHT22;5978;51.020;6.764;2023-02-18T09:32:00;10.90;99.90
11838;DHT22;5978;51.020;6.764;2023-02-18T09:34:26;11.00;99.90
11838;DHT22;5978;51.020;6.764;2023-02-18T09:36:51;11.00;99.90
11838;DHT22;5978;51.020;6.764;2023-02-18T09:39:17;11.00;99.90
11838;DHT22;5978;51.020;6.764;2023-02-18T09:41:53;11.10;99.90
11838;DHT22;5978;51.020;6.764;2023-02-18T09:44:34;11.10;99.90
11838;DHT22;5978;51.020;6.764;2023-02-18T09:49:47;11.10;99.90
11838;DHT22;5978;51.020;6.764;2023-02-18T09:52:18;11.10;99.90
11838;DHT22;5978;51.020;6.764;2023-02-18T09:54:44;11.00;99.90
11838;DHT22;5978;51.020;6.764;2023-02-18T09:59:58;11.10;99.90
11838;DHT22;5978;51.020;6.764;2023-02-18T10:02:24;11.10;99.90
11838;DHT22;5978;51.020;6.764;2023-02-18T10:04:50;11.10;99.90
11838;DHT22;5978;51.020;6.764;2023-02-18T10:07:29;11.00;99.90
11838;DHT22;5978;51.020;6.764;2023-02-18T10:09:56;11.00;99.90
11838;DHT22;5978;51.020;6.764;2023-02-18T10:12:25;11.00;99.90
11838;DHT22;5978;51.020;6.764;2023-02-18T10:15:00;11.10;99.90
11838;DHT22;5978;51.020;6.764;2023-02-18T10:17:28;11.10;99.90
11838;DHT22;5978;51.020;6.764;2023-02-18T10:19:56;11.20;99.90
11838;DHT22;5978;51.020;6.764;2023-02-18T10:22:24;11.30;99.90
11838;DHT22;5978;51.020;6.764;2023-02-18T10:24:53;11.30;99.90
11838;DHT22;5978;51.020;6.764;2023-02-18T10:27:25;11.20;99.90
11838;DHT22;5978;51.020;6.764;2023-02-18T10:29:51;11.20;99.90
11838;DHT22;5978;51.020;6.764;2023-02-18T10:32:39;11.20;99.90
11838;DHT22;5978;51.020;6.764;2023-02-18T10:43:54;11.00;99.90
11838;DHT22;5978;51.020;6.764;2023-02-18T10:46:49;11.10;99.90
11838;DHT22;5978;51.020;6.764;2023-02-18T10:52:04;11.10;99.90
11838;DHT22;5978;51.020;6.764;2023-02-18T10:55:02;11.10;99.90
11838;DHT22;5978;51.020;6.764;2023-02-18T10:57:54;11.10;99.90
11838;DHT22;5978;51.020;6.764;2023-02-18T11:00:24;11.00;99.90
11838;DHT22;5978;51.020;6.764;2023-02-18T11:03:15;10.90;99.90
11838;DHT22;5978;51.020;6.764;2023-02-18T11:05:42;10.80;99.90
11838;DHT22;5978;51.020;6.764;2023-02-18T11:08:13;10.70;99.90
11838;DHT22;5978;51.020;6.764;2023-02-18T11:10:41;10.60;99.90
11838;DHT22;5978;51.020;6.764;2023-02-18T11:13:09;10.60;99.90
11838;DHT22;5978;51.020;6.764;2023-02-18T11:15:36;10.60;99.90
11838;DHT22;5978;51.020;6.764;2023-02-18T11:18:17;10.50;99.90
11838;DHT22;5978;51.020;6.764;2023-02-18T11:21:02;10.60;99.90
11838;DHT22;5978;51.020;6.764;2023-02-18T11:23:28;10.60;99.90
11838;DHT22;5978;51.020;6.764;2023-02-18T11:26:00;10.60;99.90
11838;DHT22;5978;51.020;6.764;2023-02-18T11:28:29;10.60;99.90
11838;DHT22;5978;51.020;6.764;2023-02-18T11:30:58;10.60;99.90
11838;DHT22;5978;51.020;6.764;2023-02-18T11:33:30;10.60;99.90
11838;DHT22;5978;51.020;6.764;2023-02-18T11:35:58;10.60;99.90
11838;DHT22;5978;51.020;6.764;2023-02-18T11:41:20;10.40;99.90
11838;DHT22;5978;51.020;6.764;2023-02-18T11:43:49;10.40;99.90
11838;DHT22;5978;51.020;6.764;2023-02-18T11:46:25;10.40;99.90
11838;DHT22;5978;51.020;6.764;2023-02-18T11:48:53;10.50;99.90
11838;DHT22;5978;51.020;6.764;2023-02-18T11:51:32;10.50;99.90
11838;DHT22;5978;51.020;6.764;2023-02-18T11:54:24;10.50;99.90
11838;DHT22;5978;51.020;6.764;2023-02-18T11:57:04;10.50;99.90
11838;DHT22;5978;51.020;6.764;2023-02-18T11:59:35;10.50;99.90
11838;DHT22;5978;51.020;6.764;2023-02-18T12:04:41;10.50;99.90
11838;DHT22;5978;51.020;6.764;2023-02-18T12:07:21;10.50;99.90
11838;DHT22;5978;51.020;6.764;2023-02-18T12:09:52;10.50;99.90
11838;DHT22;5978;51.020;6.764;2023-02-18T12:12:27;10.40;99.90
11838;DHT22;5978;51.020;6.764;2023-02-18T12:14:54;10.40;99.90
11838;DHT22;5978;51.020;6.764;2023-02-18T12:27:28;10.50;99.90
11838;DHT22;5978;51.020;6.764;2023-02-18T12:38:43;10.70;99.90
11838;DHT22;5978;51.020;6.764;2023-02-18T12:41:59;10.70;99.90
11838;DHT22;5978;51.020;6.764;2023-02-18T12:44:40;10.60;99.90
11838;DHT22;5978;51.020;6.764;2023-02-18T12:47:25;10.60;99.90
11838;DHT22;5978;51.020;6.764;2023-02-18T12:50:02;10.60;99.90
11838;DHT22;5978;51.020;6.764;2023-02-18T12:53:15;10.70;99.90
11838;DHT22;5978;51.020;6.764;2023-02-18T12:58:53;10.60;99.90
11838;DHT22;5978;51.020;6.764;2023-02-18T13:04:13;10.70;99.90
11838;DHT22;5978;51.020;6.764;2023-02-18T13:06:58;10.70;99.90
11838;DHT22;5978;51.020;6.764;2023-02-18T13:12:51;10.60;99.90
11838;DHT22;5978;51.020;6.764;2023-02-18T13:15:27;10.70;99.90
11838;DHT22;5978;51.020;6.764;2023-02-18T13:17:57;10.60;99.90
11838;DHT22;5978;51.020;6.764;2023-02-18T13:23:00;10.60;99.90
11838;DHT22;5978;51.020;6.764;2023-02-18T13:25:27;10.60;99.90
11838;DHT22;5978;51.020;6.764;2023-02-18T13:28:02;10.60;99.90
11838;DHT22;5978;51.020;6.764;2023-02-18T13:31:02;10.50;99.90
11838;DHT22;5978;51.020;6.764;2023-02-18T13:36:45;10.70;99.90
11838;DHT22;5978;51.020;6.764;2023-02-18T13:39:29;10.90;99.90
11838;DHT22;5978;51.020;6.764;2023-02-18T13:47:43;10.90;99.90
11838;DHT22;5978;51.020;6.764;2023-02-18T13:52:40;10.80;99.90
11838;DHT22;5978;51.020;6.764;2023-02-18T13:55:19;10.80;99.90
11838;DHT22;5978;51.020;6.764;2023-02-18T13:57:52;10.70;99.90
11838;DHT22;5978;51.020;6.764;2023-02-18T14:00:22;10.70;99.90
11838;DHT22;5978;51.020;6.764;2023-02-18T14:03:00;10.70;99.90
11838;DHT22;5978;51.020;6.764;2023-02-18T14:05:40;10.70;99.90
11838;DHT22;5978;51.020;6.764;2023-02-18T14:08:15;10.60;99.90
11838;DHT22;5978;51.020;6.764;2023-02-18T14:13:54;10.60;99.90
11838;DHT22;5978;51.020;6.764;2023-02-18T14:16:20;10.60;99.90
11838;DHT22;5978;51.020;6.764;2023-02-18T14:18:55;10.60;99.90
11838;DHT22;5978;51.020;6.764;2023-02-18T14:21:35;10.60;99.90
11838;DHT22;5978;51.020;6.764;2023-02-18T14:24:03;10.60;99.90
11838;DHT22;5978;51.020;6.764;2023-02-18T14:26:43;10.60;99.90
11838;DHT22;5978;51.020;6.764;2023-02-18T14:29:27;10.60;99.90
11838;DHT22;5978;51.020;6.764;2023-02-18T14:31:59;10.60;99.90
11838;DHT22;5978;51.020;6.764;2023-02-18T14:34:51;10.60;99.90
11838;DHT22;5978;51.020;6.764;2023-02-18T14:37:51;10.70;99.90
11838;DHT22;5978;51.020;6.764;2023-02-18T14:48:37;10.70;99.90
11838;DHT22;5978;51.020;6.764;2023-02-18T14:51:05;10.80;99.90
11838;DHT22;5978;51.020;6.764;2023-02-18T14:53:32;10.80;99.90
11838;DHT22;5978;51.020;6.764;2023-02-18T14:56:03;10.80;99.90
11838;DHT22;5978;51.020;6.764;2023-02-18T15:01:27;10.80;99.90
11838;DHT22;5978;51.020;6.764;2023-02-18T15:03:52;10.80;99.90
11838;DHT22;5978;51.020;6.764;2023-02-18T15:08:53;10.80;99.90
11838;DHT22;5978;51.020;6.764;2023-02-18T15:11:21;10.70;99.90
11838;DHT22;5978;51.020;6.764;2023-02-18T15:13:48;10.80;99.90
11838;DHT22;5978;51.020;6.764;2023-02-18T15:16:23;10.80;99.90
11838;DHT22;5978;51.020;6.764;2023-02-18T15:18:57;10.80;99.90
11838;DHT22;5978;51.020;6.764;2023-02-18T15:21:32;10.90;99.90
11838;DHT22;5978;51.020;6.764;2023-02-18T15:24:06;10.80;99.90
11838;DHT22;5978;51.020;6.764;2023-02-18T15:26:40;10.80;99.90
11838;DHT22;5978;51.020;6.764;2023-02-18T15:29:19;10.80;99.90
11838;DHT22;5978;51.020;6.764;2023-02-18T15:31:46;10.90;99.90
11838;DHT22;5978;51.020;6.764;2023-02-18T15:36:55;10.80;99.90
11838;DHT22;5978;51.020;6.764;2023-02-18T15:39:22;10.90;99.90
11838;DHT22;5978;51.020;6.764;2023-02-18T15:41:56;10.80;99.90
11838;DHT22;5978;51.020;6.764;2023-02-18T15:44:29;10.80;99.90
11838;DHT22;5978;51.020;6.764;2023-02-18T15:47:00;10.80;99.90
11838;DHT22;5978;51.020;6.764;2023-02-18T15:49:25;10.80;99.90
11838;DHT22;5978;51.020;6.764;2023-02-18T15:51:55;10.80;99.90
11838;DHT22;5978;51.020;6.764;2023-02-18T15:54:22;10.80;99.90
11838;DHT22;5978;51.020;6.764;2023-02-18T15:56:56;10.70;99.90
11838;DHT22;5978;51.020;6.764;2023-02-18T15:59:54;10.70;99.90
11838;DHT22;5978;51.020;6.764;2023-02-18T16:02:22;10.80;99.90
11838;DHT22;5978;51.020;6.764;2023-02-18T16:04:56;10.80;99.90
11838;DHT22;5978;51.020;6.764;2023-02-18T16:07:26;10.80;99.90
11838;DHT22;5978;51.020;6.764;2023-02-18T16:12:45;10.80;99.90
11838;DHT22;5978;51.020;6.764;2023-02-18T16:15:22;10.90;99.90
11838;DHT22;5978;51.020;6.764;2023-02-18T16:17:48;10.90;99.90
11838;DHT22;5978;51.020;6.764;2023-02-18T16:20:35;10.90;99.90
11838;DHT22;5978;51.020;6.764;2023-02-18T16:23:07;10.90;99.90
11838;DHT22;5978;51.020;6.764;2023-02-18T16:25:43;10.90;99.90
11838;DHT22;5978;51.020;6.764;2023-02-18T16:28:25;10.90;99.90
11838;DHT22;5978;51.020;6.764;2023-02-18T16:30:54;10.90;99.90
11838;DHT22;5978;51.020;6.764;2023-02-18T16:33:19;11.00;99.90
11838;DHT22;5978;51.020;6.764;2023-02-18T16:35:45;11.00;99.90
11838;DHT22;5978;51.020;6.764;2023-02-18T16:38:16;11.00;99.90
11838;DHT22;5978;51.020;6.764;2023-02-18T16:40:42;11.00;99.90
11838;DHT22;5978;51.020;6.764;2023-02-18T16:45:44;11.00;99.90
11838;DHT22;5978;51.020;6.764;2023-02-18T16:48:22;11.00;99.90
11838;DHT22;5978;51.020;6.764;2023-02-18T16:50:49;11.00;99.90
11838;DHT22;5978;51.020;6.764;2023-02-18T16:53:16;11.00;99.90
11838;DHT22;5978;51.020;6.764;2023-02-18T16:55:41;11.00;99.90
11838;DHT22;5978;51.020;6.764;2023-02-18T16:58:07;11.00;99.90
11838;DHT22;5978;51.020;6.764;2023-02-18T17:00:33;11.00;99.90
11838;DHT22;5978;51.020;6.764;2023-02-18T17:02:59;11.00;99.90
11838;DHT22;5978;51.020;6.764;2023-02-18T17:05:27;11.00;99.90
11838;DHT22;5978;51.020;6.764;2023-02-18T17:07:56;11.00;99.90
11838;DHT22;5978;51.020;6.764;2023-02-18T17:10:24;11.00;99.90
11838;DHT22;5978;51.020;6.764;2023-02-18T17:12:49;10.90;99.90
11838;DHT22;5978;51.020;6.764;2023-02-18T17:15:30;10.90;99.90
11838;DHT22;5978;51.020;6.764;2023-02-18T17:17:56;10.90;99.90
11838;DHT22;5978;51.020;6.764;2023-02-18T17:20:25;11.00;99.90
11838;DHT22;5978;51.020;6.764;2023-02-18T17:22:51;11.00;99.90
11838;DHT22;5978;51.020;6.764;2023-02-18T17:25:20;11.00;99.90
11838;DHT22;5978;51.020;6.764;2023-02-18T17:27:46;11.00;99.90
11838;DHT22;5978;51.020;6.764;2023-02-18T17:30:12;11.00;99.90
11838;DHT22;5978;51.020;6.764;2023-02-18T17:32:38;11.00;99.90
11838;DHT22;5978;51.020;6.764;2023-02-18T17:35:03;11.10;99.90
11838;DHT22;5978;51.020;6.764;2023-02-18T17:37:29;11.10;99.90
11838;DHT22;5978;51.020;6.764;2023-02-18T17:39:55;11.10;99.90
11838;DHT22;5978;51.020;6.764;2023-02-18T17:42:20;11.20;99.90
11838;DHT22;5978;51.020;6.764;2023-02-18T17:44:46;11.00;99.90
11838;DHT22;5978;51.020;6.764;2023-02-18T17:47:11;11.00;99.90
11838;DHT22;5978;51.020;6.764;2023-02-18T17:49:37;10.90;99.90
11838;DHT22;5978;51.020;6.764;2023-02-18T17:52:03;10.80;99.90
11838;DHT22;5978;51.020;6.764;2023-02-18T17:54:29;10.80;99.90
11838;DHT22;5978;51.020;6.764;2023-02-18T17:56:54;10.70;99.90